Duck Creek Village, Utah
Current Conditions -  °F | °C
As of 11:53 PM on Wednesday 22 Oct 2014 (Local Time) from KCDC Reporting Station
Clear Clear  
Wind Chill: 47°   Ceiling: Unl
Heat Index: 47°   Visibility: 10mi
Dew Point: 30°   Wind: 0mph
Humidity: 52%   Direction: NA
Pressure: 30.21"   Gusts: NA
Location:  37.53°N, 112.67°W
Report Text: KCDC 230553Z AUTO 00000KT 10SM CLR 08/M01 A3021 RMK AO2 SLP194 T00831011 10183 20078 53003 TSNO
Loading
Personal Weather Stations






























Interactive Weather Map
Tropical Storm Tracking
New forecast layout! Learn more

10-Day Weather Forecast

Advertisements
Track Severe Weather on mobile